createdAt,value
2022-11-13T00:00:05.736Z,8.22
2022-11-13T00:02:51.826Z,8.00
2022-11-13T00:05:37.662Z,8.03
2022-11-13T00:08:23.413Z,7.97
2022-11-13T00:11:12.024Z,8.10
2022-11-13T00:13:58.411Z,7.95
2022-11-13T00:16:44.445Z,7.11
2022-11-13T00:19:30.020Z,7.18
2022-11-13T00:22:15.845Z,7.73
2022-11-13T00:25:01.477Z,7.62
2022-11-13T00:27:47.359Z,7.48
2022-11-13T00:30:33.372Z,7.47
2022-11-13T00:33:31.978Z,7.32
2022-11-13T00:36:26.407Z,7.49
2022-11-13T00:39:12.375Z,7.76
2022-11-13T00:41:58.110Z,7.40
2022-11-13T00:44:44.732Z,7.96
2022-11-13T00:47:30.598Z,7.63
2022-11-13T00:50:16.455Z,7.25
2022-11-13T00:53:02.146Z,6.98
2022-11-13T00:55:47.746Z,6.15
2022-11-13T00:58:33.518Z,6.29
2022-11-13T01:01:20.597Z,6.20
2022-11-13T01:04:06.591Z,6.42
2022-11-13T01:06:52.365Z,7.14
2022-11-13T01:09:38.067Z,6.80
2022-11-13T01:12:23.941Z,6.70
2022-11-13T01:15:09.774Z,6.82
2022-11-13T01:17:55.796Z,6.91
2022-11-13T01:20:41.722Z,7.03
2022-11-13T01:23:27.532Z,7.72
2022-11-13T01:26:16.607Z,8.23
2022-11-13T01:29:02.091Z,8.52
2022-11-13T01:31:48.001Z,6.58
2022-11-13T01:34:33.875Z,6.69
2022-11-13T01:37:19.706Z,6.40
2022-11-13T01:40:05.665Z,6.45
2022-11-13T01:42:51.608Z,6.22
2022-11-13T01:45:58.674Z,6.15
2022-11-13T01:48:55.392Z,5.86
2022-11-13T01:51:50.146Z,5.96
2022-11-13T01:54:39.631Z,5.64
2022-11-13T01:57:25.645Z,5.81
2022-11-13T02:00:12.795Z,5.85
2022-11-13T02:02:58.547Z,5.75
2022-11-13T02:05:44.325Z,5.60
2022-11-13T02:08:30.392Z,5.63
2022-11-13T02:11:16.962Z,5.38
2022-11-13T02:14:03.175Z,5.28
2022-11-13T02:16:51.505Z,5.49
2022-11-13T02:19:40.892Z,5.45
2022-11-13T02:22:48.835Z,5.33
2022-11-13T02:25:34.788Z,5.61
2022-11-13T02:28:20.490Z,5.68
2022-11-13T02:31:08.892Z,5.41
2022-11-13T02:33:54.772Z,5.42
2022-11-13T02:36:40.349Z,5.44
2022-11-13T02:39:26.287Z,5.28
2022-11-13T02:42:12.009Z,5.56
2022-11-13T02:44:57.609Z,5.57
2022-11-13T02:47:43.746Z,5.42
2022-11-13T02:50:29.756Z,5.44
2022-11-13T02:53:15.368Z,5.83
2022-11-13T02:56:01.104Z,5.94
2022-11-13T02:58:46.916Z,5.50
2022-11-13T03:01:32.528Z,5.43
2022-11-13T03:04:18.779Z,5.52
2022-11-13T03:07:04.845Z,5.19
2022-11-13T03:09:50.810Z,5.24
2022-11-13T03:12:36.813Z,5.41
2022-11-13T03:15:23.008Z,5.38
2022-11-13T03:18:08.976Z,5.44
2022-11-13T03:20:54.679Z,6.43
2022-11-13T03:23:41.442Z,6.88
2022-11-13T03:26:29.862Z,7.42
2022-11-13T03:29:15.707Z,7.72
2022-11-13T03:32:03.298Z,7.98
2022-11-13T03:34:49.236Z,7.66
2022-11-13T03:37:34.946Z,7.66
2022-11-13T03:40:20.515Z,7.56
2022-11-13T03:43:06.239Z,7.49
2022-11-13T03:45:52.215Z,7.43
2022-11-13T03:48:37.945Z,6.14
2022-11-13T03:51:23.660Z,6.99
2022-11-13T03:54:09.325Z,7.48
2022-11-13T03:56:54.970Z,7.78
2022-11-13T03:59:40.899Z,8.28
2022-11-13T04:02:26.564Z,7.90
2022-11-13T04:05:12.703Z,7.75
2022-11-13T04:07:58.393Z,6.18
2022-11-13T04:10:44.852Z,5.93
2022-11-13T04:13:30.598Z,5.01
2022-11-13T04:16:16.338Z,4.71
2022-11-13T04:19:02.379Z,4.78
2022-11-13T04:21:48.136Z,4.79
2022-11-13T04:24:33.760Z,4.78
2022-11-13T04:27:19.387Z,5.46
2022-11-13T04:30:05.688Z,5.28
2022-11-13T04:32:51.306Z,5.98
2022-11-13T04:35:37.025Z,5.92
2022-11-13T04:38:22.606Z,5.47
2022-11-13T04:41:27.336Z,5.12
2022-11-13T04:44:13.356Z,4.58
2022-11-13T04:46:59.047Z,4.65
2022-11-13T04:49:44.758Z,5.11
2022-11-13T04:52:30.600Z,5.30
2022-11-13T04:55:16.232Z,5.05
2022-11-13T04:58:02.011Z,4.50
2022-11-13T05:00:47.643Z,4.99
2022-11-13T05:03:33.398Z,4.95
2022-11-13T05:06:19.404Z,5.15
2022-11-13T05:09:05.437Z,5.41
2022-11-13T05:11:51.300Z,5.10
2022-11-13T05:14:40.669Z,5.03
2022-11-13T05:17:26.257Z,4.96
2022-11-13T05:20:12.173Z,4.94
2022-11-13T05:22:57.768Z,5.67
2022-11-13T05:25:44.521Z,6.55
2022-11-13T05:28:30.428Z,7.16
2022-11-13T05:31:16.719Z,6.86
2022-11-13T05:34:06.215Z,6.43
2022-11-13T05:36:52.316Z,5.39
2022-11-13T05:39:37.974Z,5.76
2022-11-13T05:42:23.555Z,5.82
2022-11-13T05:45:09.820Z,5.56
2022-11-13T05:47:55.498Z,5.35
2022-11-13T05:50:41.265Z,5.86
2022-11-13T05:53:26.912Z,6.82
2022-11-13T05:56:20.672Z,6.15
2022-11-13T05:59:06.632Z,5.46
2022-11-13T06:01:52.481Z,6.04
2022-11-13T06:04:38.663Z,6.87
2022-11-13T06:07:24.661Z,7.49
2022-11-13T06:10:10.705Z,6.32
2022-11-13T06:12:56.392Z,6.28
2022-11-13T06:15:42.214Z,5.62
2022-11-13T06:18:28.647Z,6.03
2022-11-13T06:21:21.003Z,5.63
2022-11-13T06:24:07.396Z,6.47
2022-11-13T06:26:53.793Z,5.71
2022-11-13T06:29:39.426Z,5.04
2022-11-13T06:32:25.157Z,6.64
2022-11-13T06:35:11.077Z,6.47
2022-11-13T06:37:56.824Z,7.20
2022-11-13T06:40:42.815Z,7.61
2022-11-13T06:43:28.917Z,6.77
2022-11-13T06:46:19.341Z,6.45
2022-11-13T06:49:04.946Z,6.35
2022-11-13T06:51:50.670Z,6.14
2022-11-13T06:54:36.378Z,6.18
2022-11-13T06:57:22.663Z,7.44
2022-11-13T07:00:09.393Z,7.50
2022-11-13T07:02:55.086Z,7.90
2022-11-13T07:05:41.718Z,8.02
2022-11-13T07:08:27.735Z,7.02
2022-11-13T07:11:19.370Z,6.01
2022-11-13T07:14:05.120Z,6.56
2022-11-13T07:17:08.512Z,6.23
2022-11-13T07:19:55.650Z,6.60
2022-11-13T07:22:41.237Z,7.07
2022-11-13T07:25:27.671Z,7.12
2022-11-13T07:28:13.449Z,7.64
2022-11-13T07:30:59.713Z,8.20
2022-11-13T07:33:48.096Z,8.52
2022-11-13T07:36:33.597Z,8.35
2022-11-13T07:39:19.242Z,8.50
2022-11-13T07:42:05.063Z,8.27
2022-11-13T07:44:55.068Z,8.46
2022-11-13T07:47:41.607Z,8.30
2022-11-13T07:50:33.894Z,8.42
2022-11-13T07:53:20.527Z,8.66
2022-11-13T07:56:07.134Z,9.08
2022-11-13T07:58:52.936Z,9.29
2022-11-13T08:01:38.722Z,9.44
2022-11-13T08:04:25.832Z,9.63
2022-11-13T08:07:13.178Z,9.52
2022-11-13T08:09:58.979Z,9.22
2022-11-13T08:12:45.318Z,9.63
2022-11-13T08:15:31.753Z,9.93
2022-11-13T08:18:17.615Z,9.68
2022-11-13T08:21:04.615Z,9.92
2022-11-13T08:23:50.518Z,10.06
2022-11-13T08:26:39.051Z,10.36
2022-11-13T08:29:24.974Z,10.20
2022-11-13T08:32:10.717Z,10.24
2022-11-13T08:34:56.549Z,9.87
2022-11-13T08:37:42.399Z,9.33
2022-11-13T08:40:28.667Z,9.14
2022-11-13T08:43:14.703Z,9.44
2022-11-13T08:46:00.336Z,10.30
2022-11-13T08:48:46.086Z,10.67
2022-11-13T08:51:31.765Z,10.77
2022-11-13T08:54:17.784Z,10.71
2022-11-13T08:57:06.090Z,10.32
2022-11-13T08:59:51.966Z,10.41
2022-11-13T09:02:37.663Z,10.60
2022-11-13T09:05:24.224Z,10.73
2022-11-13T09:08:10.722Z,10.73
2022-11-13T09:10:56.639Z,10.85
2022-11-13T09:13:45.086Z,10.69
2022-11-13T09:16:33.640Z,10.70
2022-11-13T09:19:19.505Z,10.91
2022-11-13T09:22:05.157Z,11.08
2022-11-13T09:24:50.949Z,11.45
2022-11-13T09:27:36.805Z,11.05
2022-11-13T09:30:23.322Z,11.34
2022-11-13T09:33:10.301Z,11.60
2022-11-13T09:35:55.977Z,11.61
2022-11-13T09:38:42.540Z,11.68
2022-11-13T09:41:30.599Z,12.07
2022-11-13T09:44:20.852Z,11.77
2022-11-13T09:47:28.401Z,11.93
2022-11-13T09:50:20.744Z,11.68
2022-11-13T09:53:06.538Z,11.86
2022-11-13T09:56:06.900Z,11.90
2022-11-13T09:59:25.083Z,12.18
2022-11-13T10:02:21.248Z,12.15
2022-11-13T10:05:13.498Z,12.18
2022-11-13T10:08:21.873Z,12.28
2022-11-13T10:11:28.832Z,12.64
2022-11-13T10:14:42.202Z,12.55
2022-11-13T10:17:49.094Z,12.51
2022-11-13T10:20:48.643Z,12.58
2022-11-13T10:23:37.353Z,12.70
2022-11-13T10:26:24.917Z,12.88
2022-11-13T10:29:18.160Z,13.26
2022-11-13T10:32:27.748Z,13.01
2022-11-13T10:35:45.607Z,13.10
2022-11-13T10:38:42.869Z,13.51
2022-11-13T10:41:29.185Z,13.57
2022-11-13T10:44:21.046Z,13.43
2022-11-13T10:47:26.423Z,13.46
2022-11-13T10:50:28.091Z,13.46
2022-11-13T10:53:16.854Z,13.83
2022-11-13T10:56:12.965Z,13.84
2022-11-13T10:59:26.182Z,14.04
2022-11-13T11:02:11.875Z,14.28
2022-11-13T11:05:03.427Z,14.47
2022-11-13T11:07:49.656Z,14.60
2022-11-13T11:10:36.724Z,14.76
2022-11-13T11:13:23.903Z,15.13
2022-11-13T11:16:13.797Z,15.04
2022-11-13T11:19:02.174Z,15.08
2022-11-13T11:21:51.744Z,15.36
2022-11-13T11:24:51.502Z,15.69
2022-11-13T11:27:47.784Z,15.90
2022-11-13T11:30:40.635Z,15.96
2022-11-13T11:33:37.831Z,16.28
2022-11-13T11:36:36.939Z,16.37
2022-11-13T11:39:40.142Z,16.21
2022-11-13T11:42:47.355Z,16.30
2022-11-13T11:45:37.526Z,16.51
2022-11-13T11:48:27.291Z,16.52
2022-11-13T11:51:35.986Z,16.62
2022-11-13T11:54:40.315Z,16.70
2022-11-13T11:57:47.682Z,16.52
2022-11-13T12:00:34.686Z,16.78
2022-11-13T12:03:44.070Z,16.91
2022-11-13T12:06:38.895Z,17.03
2022-11-13T12:09:30.669Z,17.15
2022-11-13T12:12:37.822Z,17.02
2022-11-13T12:15:37.787Z,16.96
2022-11-13T12:18:48.603Z,17.13
2022-11-13T12:22:04.027Z,16.92
2022-11-13T12:25:09.512Z,17.07
2022-11-13T12:28:16.890Z,17.22
2022-11-13T12:31:39.106Z,16.96
2022-11-13T12:34:30.006Z,16.86
2022-11-13T12:37:52.258Z,16.89
2022-11-13T12:41:20.689Z,16.59
2022-11-13T12:44:27.338Z,16.71
2022-11-13T12:47:13.620Z,16.75
2022-11-13T12:50:05.052Z,16.90
2022-11-13T12:53:06.342Z,16.67
2022-11-13T12:56:00.952Z,16.61
2022-11-13T12:59:23.764Z,16.69
2022-11-13T13:02:09.197Z,16.69
2022-11-13T13:05:07.202Z,16.88
2022-11-13T13:08:05.491Z,16.62
2022-11-13T13:10:56.139Z,16.65
2022-11-13T13:13:47.300Z,16.63
2022-11-13T13:16:33.212Z,16.64
2022-11-13T13:19:29.395Z,16.77
2022-11-13T13:22:32.816Z,16.86
2022-11-13T13:25:33.617Z,16.92
2022-11-13T13:28:24.310Z,16.52
2022-11-13T13:31:12.933Z,16.94
2022-11-13T13:34:23.041Z,16.79
2022-11-13T13:37:23.750Z,16.99
2022-11-13T13:40:15.319Z,16.83
2022-11-13T13:43:42.924Z,16.44
2022-11-13T13:46:31.238Z,16.37
2022-11-13T13:49:20.510Z,16.32
2022-11-13T13:52:06.545Z,16.35
2022-11-13T13:54:52.831Z,16.33
2022-11-13T13:57:41.284Z,16.40
2022-11-13T14:00:27.549Z,16.27
2022-11-13T14:03:19.863Z,16.14
2022-11-13T14:06:24.516Z,16.22
2022-11-13T14:09:15.615Z,16.33
2022-11-13T14:12:09.017Z,16.19
2022-11-13T14:14:55.674Z,16.36
2022-11-13T14:17:41.470Z,16.35
2022-11-13T14:20:27.288Z,16.34
2022-11-13T14:23:15.855Z,16.25
2022-11-13T14:26:03.000Z,16.02
2022-11-13T14:28:56.008Z,15.82
2022-11-13T14:31:41.921Z,15.67
2022-11-13T14:34:27.555Z,15.79
2022-11-13T14:37:23.057Z,15.66
2022-11-13T14:40:33.979Z,15.08
2022-11-13T14:43:29.833Z,15.46
2022-11-13T14:46:36.852Z,15.46
2022-11-13T14:49:33.829Z,14.99
2022-11-13T14:52:28.286Z,15.13
2022-11-13T14:55:22.986Z,15.04
2022-11-13T14:58:13.645Z,14.89
2022-11-13T15:01:12.004Z,14.73
2022-11-13T15:03:58.484Z,14.72
2022-11-13T15:06:44.819Z,14.51
2022-11-13T15:09:31.227Z,14.55
2022-11-13T15:12:17.227Z,14.30
2022-11-13T15:15:03.228Z,14.19
2022-11-13T15:17:50.604Z,14.27
2022-11-13T15:20:36.741Z,14.23
2022-11-13T15:23:23.266Z,13.85
2022-11-13T15:26:11.464Z,13.94
2022-11-13T15:28:57.741Z,13.72
2022-11-13T15:31:45.575Z,13.68
2022-11-13T15:34:31.920Z,13.72
2022-11-13T15:37:18.330Z,13.58
2022-11-13T15:40:05.016Z,13.45
2022-11-13T15:42:50.976Z,13.15
2022-11-13T15:45:41.226Z,13.20
2022-11-13T15:48:29.773Z,13.18
2022-11-13T15:51:28.142Z,13.26
2022-11-13T15:54:25.636Z,13.14
2022-11-13T15:57:19.054Z,12.86
2022-11-13T16:00:16.747Z,12.65
2022-11-13T16:03:04.878Z,12.66
2022-11-13T16:05:53.526Z,12.74
2022-11-13T16:08:39.805Z,12.51
2022-11-13T16:11:25.853Z,12.06
2022-11-13T16:14:11.679Z,11.98
2022-11-13T16:16:57.378Z,12.26
2022-11-13T16:19:46.267Z,12.18
2022-11-13T16:22:32.892Z,12.28
2022-11-13T16:25:20.954Z,12.90
2022-11-13T16:28:18.109Z,12.66
2022-11-13T16:31:04.074Z,12.69
2022-11-13T16:33:50.424Z,12.63
2022-11-13T16:36:37.628Z,12.82
2022-11-13T16:39:24.132Z,12.46
2022-11-13T16:42:11.290Z,12.37
2022-11-13T16:44:58.083Z,12.20
2022-11-13T16:47:44.475Z,12.18
2022-11-13T16:50:32.468Z,12.00
2022-11-13T16:53:19.187Z,11.55
2022-11-13T16:56:32.653Z,11.49
2022-11-13T16:59:20.558Z,11.31
2022-11-13T17:02:17.867Z,11.14
2022-11-13T17:05:05.025Z,11.23
2022-11-13T17:07:57.409Z,11.18
2022-11-13T17:10:43.648Z,11.32
2022-11-13T17:13:30.834Z,11.20
2022-11-13T17:16:18.473Z,11.08
2022-11-13T17:19:04.546Z,11.16
2022-11-13T17:21:50.932Z,11.17
2022-11-13T17:24:39.989Z,11.06
2022-11-13T17:27:26.650Z,11.26
2022-11-13T17:30:13.801Z,11.12
2022-11-13T17:33:00.246Z,10.99
2022-11-13T17:35:54.123Z,11.00
2022-11-13T17:38:40.359Z,11.01
2022-11-13T17:41:26.683Z,10.98
2022-11-13T17:44:12.872Z,10.91
2022-11-13T17:46:59.910Z,11.03
2022-11-13T17:49:45.995Z,11.01
2022-11-13T17:52:32.498Z,10.94
2022-11-13T17:55:19.338Z,10.86
2022-11-13T17:58:05.568Z,10.36
2022-11-13T18:00:52.412Z,10.45
2022-11-13T18:03:39.155Z,9.97
2022-11-13T18:06:26.346Z,9.88
2022-11-13T18:09:13.798Z,10.21
2022-11-13T18:12:00.357Z,10.43
2022-11-13T18:14:52.272Z,10.77
2022-11-13T18:17:39.180Z,10.79
2022-11-13T18:20:25.399Z,10.98
2022-11-13T18:23:11.727Z,10.20
2022-11-13T18:25:58.072Z,10.52
2022-11-13T18:28:45.300Z,10.73
2022-11-13T18:31:31.997Z,10.21
2022-11-13T18:34:18.524Z,10.08
2022-11-13T18:37:05.060Z,9.65
2022-11-13T18:39:51.387Z,10.10
2022-11-13T18:42:38.060Z,10.16
2022-11-13T18:45:24.530Z,10.29
2022-11-13T18:48:11.459Z,10.25
2022-11-13T18:50:59.524Z,10.19
2022-11-13T18:53:48.661Z,10.24
2022-11-13T18:56:36.243Z,9.99
2022-11-13T18:59:22.234Z,8.98
2022-11-13T19:02:10.517Z,8.95
2022-11-13T19:04:57.071Z,9.08
2022-11-13T19:07:43.918Z,9.56
2022-11-13T19:10:30.442Z,9.97
2022-11-13T19:13:17.076Z,10.04
2022-11-13T19:16:15.893Z,10.41
2022-11-13T19:19:08.770Z,10.45
2022-11-13T19:21:55.134Z,10.12
2022-11-13T19:24:50.436Z,9.24
2022-11-13T19:27:37.133Z,7.99
2022-11-13T19:30:23.506Z,7.91
2022-11-13T19:33:10.525Z,7.59
2022-11-13T19:35:56.836Z,8.11
2022-11-13T19:38:44.057Z,8.13
2022-11-13T19:41:30.989Z,7.32
2022-11-13T19:44:17.709Z,6.92
2022-11-13T19:47:04.186Z,7.16
2022-11-13T19:49:50.869Z,7.97
2022-11-13T19:52:36.671Z,8.35
2022-11-13T19:55:23.402Z,8.95
2022-11-13T19:58:10.208Z,9.15
2022-11-13T20:00:57.223Z,8.96
2022-11-13T20:03:43.827Z,9.03
2022-11-13T20:06:32.974Z,8.76
2022-11-13T20:09:19.493Z,8.81
2022-11-13T20:12:08.992Z,8.49
2022-11-13T20:14:56.762Z,8.64
2022-11-13T20:17:43.491Z,8.27
2022-11-13T20:20:29.892Z,7.55
2022-11-13T20:23:15.835Z,6.98
2022-11-13T20:26:04.966Z,7.24
2022-11-13T20:28:51.087Z,7.95
2022-11-13T20:31:37.320Z,8.29
2022-11-13T20:34:24.010Z,7.86
2022-11-13T20:37:10.408Z,8.23
2022-11-13T20:39:57.201Z,8.42
2022-11-13T20:42:43.194Z,7.53
2022-11-13T20:45:29.525Z,8.16
2022-11-13T20:48:16.129Z,7.93
2022-11-13T20:51:11.154Z,7.29
2022-11-13T20:53:57.603Z,8.05
2022-11-13T20:56:44.922Z,8.32
2022-11-13T20:59:31.374Z,8.29
2022-11-13T21:02:18.142Z,8.37
2022-11-13T21:05:04.640Z,8.55
2022-11-13T21:07:50.283Z,8.82
2022-11-13T21:10:36.260Z,8.60
2022-11-13T21:13:22.402Z,8.28
2022-11-13T21:16:09.537Z,8.36
2022-11-13T21:18:59.618Z,8.16
2022-11-13T21:21:45.498Z,8.49
2022-11-13T21:24:31.988Z,8.65
2022-11-13T21:27:17.802Z,8.55
2022-11-13T21:30:03.733Z,8.59
2022-11-13T21:32:49.576Z,8.64
2022-11-13T21:35:35.286Z,8.55
2022-11-13T21:38:21.315Z,8.81
2022-11-13T21:41:26.859Z,8.89
2022-11-13T21:44:13.302Z,8.88
2022-11-13T21:46:59.958Z,8.81
2022-11-13T21:49:45.699Z,8.90
2022-11-13T21:52:31.410Z,9.04
2022-11-13T21:55:17.290Z,9.03
2022-11-13T21:58:03.029Z,8.92
2022-11-13T22:00:48.695Z,8.55
2022-11-13T22:03:34.504Z,8.72
2022-11-13T22:06:20.624Z,9.01
2022-11-13T22:09:13.590Z,9.09
2022-11-13T22:11:59.622Z,9.13
2022-11-13T22:14:45.264Z,9.11
2022-11-13T22:17:30.934Z,9.02
2022-11-13T22:20:16.926Z,9.22
2022-11-13T22:23:05.607Z,9.01
2022-11-13T22:25:57.067Z,9.11
2022-11-13T22:28:45.074Z,9.05
2022-11-13T22:31:31.828Z,8.92
2022-11-13T22:34:18.254Z,9.05
2022-11-13T22:37:04.279Z,9.11
2022-11-13T22:39:49.962Z,9.01
2022-11-13T22:42:35.521Z,8.95
2022-11-13T22:45:24.021Z,9.18
2022-11-13T22:48:11.258Z,9.04
2022-11-13T22:51:02.880Z,9.07
2022-11-13T22:53:56.171Z,9.51
2022-11-13T22:56:42.386Z,8.87
2022-11-13T22:59:28.414Z,9.09
2022-11-13T23:02:14.344Z,8.92
2022-11-13T23:05:00.207Z,8.81
2022-11-13T23:07:46.093Z,8.75
2022-11-13T23:10:31.702Z,8.57
2022-11-13T23:13:17.473Z,9.17
2022-11-13T23:16:03.620Z,8.93
2022-11-13T23:18:51.267Z,8.61
2022-11-13T23:21:37.287Z,8.64
2022-11-13T23:24:24.365Z,7.87
2022-11-13T23:27:10.237Z,8.44
2022-11-13T23:29:56.021Z,8.74
2022-11-13T23:32:41.571Z,8.63
2022-11-13T23:35:27.738Z,8.90
2022-11-13T23:38:13.967Z,8.69
2022-11-13T23:41:00.653Z,8.72
2022-11-13T23:46:52.248Z,8.91
2022-11-13T23:49:37.973Z,8.84
2022-11-13T23:52:23.851Z,9.08
2022-11-13T23:55:10.642Z,8.95
2022-11-13T23:57:58.189Z,8.77
